sensor_id;sensor_type;location;lat;lon;timestamp;temperature;humidity
14739;DHT22;7461;52.440;13.540;2022-07-31T00:01:49;17.40;99.90
14739;DHT22;7461;52.440;13.540;2022-07-31T00:04:20;17.40;99.90
14739;DHT22;7461;52.440;13.540;2022-07-31T00:06:48;17.40;99.90
14739;DHT22;7461;52.440;13.540;2022-07-31T00:09:15;17.30;99.90
14739;DHT22;7461;52.440;13.540;2022-07-31T00:11:42;17.30;99.90
14739;DHT22;7461;52.440;13.540;2022-07-31T00:14:09;17.20;99.90
14739;DHT22;7461;52.440;13.540;2022-07-31T00:16:35;17.20;99.90
14739;DHT22;7461;52.440;13.540;2022-07-31T00:19:02;17.20;99.90
14739;DHT22;7461;52.440;13.540;2022-07-31T00:21:31;17.20;99.90
14739;DHT22;7461;52.440;13.540;2022-07-31T00:23:57;17.20;99.90
14739;DHT22;7461;52.440;13.540;2022-07-31T00:26:24;17.10;99.90
14739;DHT22;7461;52.440;13.540;2022-07-31T00:28:51;17.10;99.90
14739;DHT22;7461;52.440;13.540;2022-07-31T00:31:18;17.00;99.90
14739;DHT22;7461;52.440;13.540;2022-07-31T00:33:45;17.00;99.90
14739;DHT22;7461;52.440;13.540;2022-07-31T00:36:12;17.00;99.90
14739;DHT22;7461;52.440;13.540;2022-07-31T00:38:40;17.00;99.90
14739;DHT22;7461;52.440;13.540;2022-07-31T00:41:07;17.10;99.90
14739;DHT22;7461;52.440;13.540;2022-07-31T00:43:47;17.00;99.90
14739;DHT22;7461;52.440;13.540;2022-07-31T00:46:13;17.00;99.90
14739;DHT22;7461;52.440;13.540;2022-07-31T00:48:40;16.90;99.90
14739;DHT22;7461;52.440;13.540;2022-07-31T00:51:07;16.90;99.90
14739;DHT22;7461;52.440;13.540;2022-07-31T00:53:34;16.90;99.90
14739;DHT22;7461;52.440;13.540;2022-07-31T00:56:03;16.90;99.90
14739;DHT22;7461;52.440;13.540;2022-07-31T00:58:30;16.80;99.90
14739;DHT22;7461;52.440;13.540;2022-07-31T01:00:56;16.90;99.90
14739;DHT22;7461;52.440;13.540;2022-07-31T01:03:23;16.80;99.90
14739;DHT22;7461;52.440;13.540;2022-07-31T01:05:50;16.80;99.90
14739;DHT22;7461;52.440;13.540;2022-07-31T01:08:17;16.80;99.90
14739;DHT22;7461;52.440;13.540;2022-07-31T01:10:51;16.80;99.90
14739;DHT22;7461;52.440;13.540;2022-07-31T01:13:27;16.90;99.90
14739;DHT22;7461;52.440;13.540;2022-07-31T01:15:55;16.80;99.90
14739;DHT22;7461;52.440;13.540;2022-07-31T01:18:26;16.80;99.90
14739;DHT22;7461;52.440;13.540;2022-07-31T01:20:55;16.80;99.90
14739;DHT22;7461;52.440;13.540;2022-07-31T01:24:07;16.70;99.90
14739;DHT22;7461;52.440;13.540;2022-07-31T01:26:44;16.70;99.90
14739;DHT22;7461;52.440;13.540;2022-07-31T01:29:19;16.60;99.90
14739;DHT22;7461;52.440;13.540;2022-07-31T01:31:56;16.60;99.90
14739;DHT22;7461;52.440;13.540;2022-07-31T01:34:28;16.60;99.90
14739;DHT22;7461;52.440;13.540;2022-07-31T01:37:07;16.60;99.90
14739;DHT22;7461;52.440;13.540;2022-07-31T01:39:37;16.70;99.90
14739;DHT22;7461;52.440;13.540;2022-07-31T01:42:11;16.70;99.90
14739;DHT22;7461;52.440;13.540;2022-07-31T01:44:43;16.70;99.90
14739;DHT22;7461;52.440;13.540;2022-07-31T01:47:14;16.60;99.90
14739;DHT22;7461;52.440;13.540;2022-07-31T01:49:43;16.70;99.90
14739;DHT22;7461;52.440;13.540;2022-07-31T01:52:12;16.60;99.90
14739;DHT22;7461;52.440;13.540;2022-07-31T01:54:39;16.60;99.90
14739;DHT22;7461;52.440;13.540;2022-07-31T01:57:08;16.50;99.90
14739;DHT22;7461;52.440;13.540;2022-07-31T01:59:37;16.50;99.90
14739;DHT22;7461;52.440;13.540;2022-07-31T02:02:06;16.50;99.90
14739;DHT22;7461;52.440;13.540;2022-07-31T02:04:33;16.60;99.90
14739;DHT22;7461;52.440;13.540;2022-07-31T02:07:01;16.50;99.90
14739;DHT22;7461;52.440;13.540;2022-07-31T02:09:29;16.50;99.90
14739;DHT22;7461;52.440;13.540;2022-07-31T02:11:58;16.50;99.90
14739;DHT22;7461;52.440;13.540;2022-07-31T02:14:26;16.50;99.90
14739;DHT22;7461;52.440;13.540;2022-07-31T02:16:55;16.40;99.90
14739;DHT22;7461;52.440;13.540;2022-07-31T02:19:26;16.40;99.90
14739;DHT22;7461;52.440;13.540;2022-07-31T02:21:54;16.50;99.90
14739;DHT22;7461;52.440;13.540;2022-07-31T02:24:21;16.40;99.90
14739;DHT22;7461;52.440;13.540;2022-07-31T02:26:49;16.40;99.90
14739;DHT22;7461;52.440;13.540;2022-07-31T02:29:18;16.40;99.90
14739;DHT22;7461;52.440;13.540;2022-07-31T02:31:46;16.30;99.90
14739;DHT22;7461;52.440;13.540;2022-07-31T02:34:16;16.30;99.90
14739;DHT22;7461;52.440;13.540;2022-07-31T02:36:44;16.20;99.90
14739;DHT22;7461;52.440;13.540;2022-07-31T02:39:13;16.20;99.90
14739;DHT22;7461;52.440;13.540;2022-07-31T02:41:41;16.20;99.90
14739;DHT22;7461;52.440;13.540;2022-07-31T02:44:09;16.20;99.90
14739;DHT22;7461;52.440;13.540;2022-07-31T02:46:37;16.30;99.90
14739;DHT22;7461;52.440;13.540;2022-07-31T02:49:05;16.20;99.90
14739;DHT22;7461;52.440;13.540;2022-07-31T02:51:32;16.20;99.90
14739;DHT22;7461;52.440;13.540;2022-07-31T02:54:01;16.10;99.90
14739;DHT22;7461;52.440;13.540;2022-07-31T02:56:28;16.10;99.90
14739;DHT22;7461;52.440;13.540;2022-07-31T02:58:55;16.10;99.90
14739;DHT22;7461;52.440;13.540;2022-07-31T03:01:23;16.10;99.90
14739;DHT22;7461;52.440;13.540;2022-07-31T03:03:50;16.10;99.90
14739;DHT22;7461;52.440;13.540;2022-07-31T03:06:18;16.00;99.90
14739;DHT22;7461;52.440;13.540;2022-07-31T03:08:44;15.90;99.90
14739;DHT22;7461;52.440;13.540;2022-07-31T03:11:14;15.90;99.90
14739;DHT22;7461;52.440;13.540;2022-07-31T03:13:42;15.90;99.90
14739;DHT22;7461;52.440;13.540;2022-07-31T03:16:11;15.90;99.90
14739;DHT22;7461;52.440;13.540;2022-07-31T03:18:39;15.90;99.90
14739;DHT22;7461;52.440;13.540;2022-07-31T03:21:08;15.80;99.90
14739;DHT22;7461;52.440;13.540;2022-07-31T03:23:36;15.80;99.90
14739;DHT22;7461;52.440;13.540;2022-07-31T03:26:04;15.70;99.90
14739;DHT22;7461;52.440;13.540;2022-07-31T03:28:34;15.60;99.90
14739;DHT22;7461;52.440;13.540;2022-07-31T03:31:01;15.60;99.90
14739;DHT22;7461;52.440;13.540;2022-07-31T03:33:29;15.70;99.90
14739;DHT22;7461;52.440;13.540;2022-07-31T03:35:56;15.70;99.90
14739;DHT22;7461;52.440;13.540;2022-07-31T03:38:23;15.60;99.90
14739;DHT22;7461;52.440;13.540;2022-07-31T03:40:50;15.60;99.90
14739;DHT22;7461;52.440;13.540;2022-07-31T03:43:18;15.60;99.90
14739;DHT22;7461;52.440;13.540;2022-07-31T03:45:48;15.60;99.90
14739;DHT22;7461;52.440;13.540;2022-07-31T03:48:15;15.60;99.90
14739;DHT22;7461;52.440;13.540;2022-07-31T03:50:43;15.50;99.90
14739;DHT22;7461;52.440;13.540;2022-07-31T03:53:11;15.50;99.90
14739;DHT22;7461;52.440;13.540;2022-07-31T03:55:39;15.50;99.90
14739;DHT22;7461;52.440;13.540;2022-07-31T03:58:07;15.60;99.90
14739;DHT22;7461;52.440;13.540;2022-07-31T04:00:34;15.60;99.90
14739;DHT22;7461;52.440;13.540;2022-07-31T04:03:06;15.60;99.90
14739;DHT22;7461;52.440;13.540;2022-07-31T04:05:33;15.70;99.90
14739;DHT22;7461;52.440;13.540;2022-07-31T04:08:00;15.80;99.90
14739;DHT22;7461;52.440;13.540;2022-07-31T04:10:27;15.80;99.90
14739;DHT22;7461;52.440;13.540;2022-07-31T04:12:54;15.90;99.90
14739;DHT22;7461;52.440;13.540;2022-07-31T04:15:21;15.80;99.90
14739;DHT22;7461;52.440;13.540;2022-07-31T04:17:48;15.80;99.90
14739;DHT22;7461;52.440;13.540;2022-07-31T04:20:16;15.80;99.90
14739;DHT22;7461;52.440;13.540;2022-07-31T04:22:46;15.80;99.90
14739;DHT22;7461;52.440;13.540;2022-07-31T04:25:13;15.90;99.90
14739;DHT22;7461;52.440;13.540;2022-07-31T04:27:40;15.90;99.90
14739;DHT22;7461;52.440;13.540;2022-07-31T04:30:08;15.90;99.90
14739;DHT22;7461;52.440;13.540;2022-07-31T04:32:35;15.90;99.90
14739;DHT22;7461;52.440;13.540;2022-07-31T04:35:03;16.00;99.90
14739;DHT22;7461;52.440;13.540;2022-07-31T04:37:32;16.10;99.90
14739;DHT22;7461;52.440;13.540;2022-07-31T04:39:59;16.10;99.90
14739;DHT22;7461;52.440;13.540;2022-07-31T04:42:26;16.20;99.90
14739;DHT22;7461;52.440;13.540;2022-07-31T04:44:53;16.30;99.90
14739;DHT22;7461;52.440;13.540;2022-07-31T04:47:20;16.40;99.90
14739;DHT22;7461;52.440;13.540;2022-07-31T04:49:47;16.40;99.90
14739;DHT22;7461;52.440;13.540;2022-07-31T04:52:14;16.50;99.90
14739;DHT22;7461;52.440;13.540;2022-07-31T04:54:42;16.40;99.90
14739;DHT22;7461;52.440;13.540;2022-07-31T04:57:09;16.40;99.90
14739;DHT22;7461;52.440;13.540;2022-07-31T04:59:35;16.50;99.90
14739;DHT22;7461;52.440;13.540;2022-07-31T05:02:02;16.60;99.90
14739;DHT22;7461;52.440;13.540;2022-07-31T05:04:29;16.60;99.90
14739;DHT22;7461;52.440;13.540;2022-07-31T05:06:56;16.60;99.90
14739;DHT22;7461;52.440;13.540;2022-07-31T05:09:23;16.70;99.90
14739;DHT22;7461;52.440;13.540;2022-07-31T05:11:52;16.70;99.90
14739;DHT22;7461;52.440;13.540;2022-07-31T05:14:20;16.70;99.90
14739;DHT22;7461;52.440;13.540;2022-07-31T05:16:47;16.80;99.90
14739;DHT22;7461;52.440;13.540;2022-07-31T05:19:15;16.90;99.90
14739;DHT22;7461;52.440;13.540;2022-07-31T05:21:42;16.90;99.90
14739;DHT22;7461;52.440;13.540;2022-07-31T05:24:10;17.00;99.90
14739;DHT22;7461;52.440;13.540;2022-07-31T05:26:37;17.00;99.90
14739;DHT22;7461;52.440;13.540;2022-07-31T05:29:05;17.10;99.90
14739;DHT22;7461;52.440;13.540;2022-07-31T05:31:32;17.20;99.90
14739;DHT22;7461;52.440;13.540;2022-07-31T05:33:59;17.20;99.90
14739;DHT22;7461;52.440;13.540;2022-07-31T05:36:26;17.30;99.90
14739;DHT22;7461;52.440;13.540;2022-07-31T05:38:53;17.30;99.90
14739;DHT22;7461;52.440;13.540;2022-07-31T05:41:20;17.40;99.90
14739;DHT22;7461;52.440;13.540;2022-07-31T05:43:47;17.40;99.90
14739;DHT22;7461;52.440;13.540;2022-07-31T05:46:15;17.40;99.90
14739;DHT22;7461;52.440;13.540;2022-07-31T05:48:42;17.50;99.90
14739;DHT22;7461;52.440;13.540;2022-07-31T05:51:10;17.60;99.90
14739;DHT22;7461;52.440;13.540;2022-07-31T05:53:37;17.70;99.90
14739;DHT22;7461;52.440;13.540;2022-07-31T05:56:04;17.70;99.90
14739;DHT22;7461;52.440;13.540;2022-07-31T05:58:32;17.80;99.90
14739;DHT22;7461;52.440;13.540;2022-07-31T06:01:00;17.90;99.90
14739;DHT22;7461;52.440;13.540;2022-07-31T06:03:28;17.90;99.90
14739;DHT22;7461;52.440;13.540;2022-07-31T06:06:01;18.00;99.90
14739;DHT22;7461;52.440;13.540;2022-07-31T06:08:28;18.00;99.90
14739;DHT22;7461;52.440;13.540;2022-07-31T06:10:56;18.10;99.90
14739;DHT22;7461;52.440;13.540;2022-07-31T06:13:24;18.20;99.90
14739;DHT22;7461;52.440;13.540;2022-07-31T06:15:52;18.20;99.90
14739;DHT22;7461;52.440;13.540;2022-07-31T06:18:20;18.30;99.90
14739;DHT22;7461;52.440;13.540;2022-07-31T06:20:49;18.40;99.90
14739;DHT22;7461;52.440;13.540;2022-07-31T06:23:19;18.50;99.90
14739;DHT22;7461;52.440;13.540;2022-07-31T06:25:46;18.50;99.90
14739;DHT22;7461;52.440;13.540;2022-07-31T06:28:12;18.60;99.90
14739;DHT22;7461;52.440;13.540;2022-07-31T06:30:39;18.70;99.90
14739;DHT22;7461;52.440;13.540;2022-07-31T06:33:06;18.80;99.90
14739;DHT22;7461;52.440;13.540;2022-07-31T06:35:33;18.90;99.90
14739;DHT22;7461;52.440;13.540;2022-07-31T06:38:02;19.00;99.90
14739;DHT22;7461;52.440;13.540;2022-07-31T06:40:28;19.00;99.90
14739;DHT22;7461;52.440;13.540;2022-07-31T06:42:55;19.10;99.90
14739;DHT22;7461;52.440;13.540;2022-07-31T06:45:22;19.20;99.90
14739;DHT22;7461;52.440;13.540;2022-07-31T06:47:49;19.20;99.90
14739;DHT22;7461;52.440;13.540;2022-07-31T06:50:16;19.30;99.90
14739;DHT22;7461;52.440;13.540;2022-07-31T06:52:43;19.40;99.90
14739;DHT22;7461;52.440;13.540;2022-07-31T06:55:11;19.40;99.90
14739;DHT22;7461;52.440;13.540;2022-07-31T06:57:38;19.50;99.90
14739;DHT22;7461;52.440;13.540;2022-07-31T07:00:06;19.50;99.90
14739;DHT22;7461;52.440;13.540;2022-07-31T07:02:35;19.60;99.90
14739;DHT22;7461;52.440;13.540;2022-07-31T07:05:02;19.70;99.90
14739;DHT22;7461;52.440;13.540;2022-07-31T07:07:29;19.80;99.90
14739;DHT22;7461;52.440;13.540;2022-07-31T07:09:56;19.80;99.90
14739;DHT22;7461;52.440;13.540;2022-07-31T07:12:24;19.90;99.90
14739;DHT22;7461;52.440;13.540;2022-07-31T07:14:51;19.90;99.90
14739;DHT22;7461;52.440;13.540;2022-07-31T07:17:18;20.10;99.90
14739;DHT22;7461;52.440;13.540;2022-07-31T07:19:45;20.10;99.90
14739;DHT22;7461;52.440;13.540;2022-07-31T07:22:11;20.30;99.90
14739;DHT22;7461;52.440;13.540;2022-07-31T07:24:38;20.40;99.90
14739;DHT22;7461;52.440;13.540;2022-07-31T07:27:05;20.40;99.90
14739;DHT22;7461;52.440;13.540;2022-07-31T07:29:34;20.40;99.90
14739;DHT22;7461;52.440;13.540;2022-07-31T07:32:00;20.50;99.90
14739;DHT22;7461;52.440;13.540;2022-07-31T07:34:27;20.60;99.90
14739;DHT22;7461;52.440;13.540;2022-07-31T07:36:54;20.70;99.90
14739;DHT22;7461;52.440;13.540;2022-07-31T07:39:21;20.80;99.90
14739;DHT22;7461;52.440;13.540;2022-07-31T07:41:48;20.90;99.90
14739;DHT22;7461;52.440;13.540;2022-07-31T07:44:15;21.00;99.90
14739;DHT22;7461;52.440;13.540;2022-07-31T07:46:43;21.00;99.90
14739;DHT22;7461;52.440;13.540;2022-07-31T07:49:10;21.00;99.90
14739;DHT22;7461;52.440;13.540;2022-07-31T07:51:37;21.00;99.90
14739;DHT22;7461;52.440;13.540;2022-07-31T07:54:04;21.10;99.90
14739;DHT22;7461;52.440;13.540;2022-07-31T07:56:31;21.20;99.90
14739;DHT22;7461;52.440;13.540;2022-07-31T07:58:58;21.30;99.90
14739;DHT22;7461;52.440;13.540;2022-07-31T08:01:25;21.50;99.90
14739;DHT22;7461;52.440;13.540;2022-07-31T08:03:54;21.50;99.90
14739;DHT22;7461;52.440;13.540;2022-07-31T08:06:21;21.60;99.90
14739;DHT22;7461;52.440;13.540;2022-07-31T08:08:48;21.60;99.90
14739;DHT22;7461;52.440;13.540;2022-07-31T08:11:15;21.80;99.90
14739;DHT22;7461;52.440;13.540;2022-07-31T08:13:42;22.00;99.90
14739;DHT22;7461;52.440;13.540;2022-07-31T08:16:09;22.20;99.90
14739;DHT22;7461;52.440;13.540;2022-07-31T08:18:36;22.30;99.90
14739;DHT22;7461;52.440;13.540;2022-07-31T08:21:04;22.60;99.90
14739;DHT22;7461;52.440;13.540;2022-07-31T08:23:31;22.80;99.90
14739;DHT22;7461;52.440;13.540;2022-07-31T08:25:58;22.90;99.90
14739;DHT22;7461;52.440;13.540;2022-07-31T08:28:25;22.90;99.90
14739;DHT22;7461;52.440;13.540;2022-07-31T08:30:52;22.90;99.90
14739;DHT22;7461;52.440;13.540;2022-07-31T08:33:19;23.00;99.90
14739;DHT22;7461;52.440;13.540;2022-07-31T08:35:46;23.00;99.90
14739;DHT22;7461;52.440;13.540;2022-07-31T08:38:16;23.10;99.90
14739;DHT22;7461;52.440;13.540;2022-07-31T08:40:43;23.10;99.90
14739;DHT22;7461;52.440;13.540;2022-07-31T08:43:10;23.20;99.90
14739;DHT22;7461;52.440;13.540;2022-07-31T08:45:39;23.40;99.90
14739;DHT22;7461;52.440;13.540;2022-07-31T08:48:07;23.50;99.90
14739;DHT22;7461;52.440;13.540;2022-07-31T08:50:37;23.60;99.90
14739;DHT22;7461;52.440;13.540;2022-07-31T08:53:04;23.80;99.90
14739;DHT22;7461;52.440;13.540;2022-07-31T08:55:33;23.80;99.90
14739;DHT22;7461;52.440;13.540;2022-07-31T08:58:00;23.80;99.90
14739;DHT22;7461;52.440;13.540;2022-07-31T09:00:27;23.90;99.90
14739;DHT22;7461;52.440;13.540;2022-07-31T09:02:54;24.10;99.90
14739;DHT22;7461;52.440;13.540;2022-07-31T09:05:21;24.00;99.90
14739;DHT22;7461;52.440;13.540;2022-07-31T09:07:49;24.00;99.90
14739;DHT22;7461;52.440;13.540;2022-07-31T09:10:21;24.00;99.90
14739;DHT22;7461;52.440;13.540;2022-07-31T09:12:50;24.00;99.90
14739;DHT22;7461;52.440;13.540;2022-07-31T09:15:21;24.10;99.90
14739;DHT22;7461;52.440;13.540;2022-07-31T09:17:49;24.10;99.90
14739;DHT22;7461;52.440;13.540;2022-07-31T09:20:17;24.20;99.90
14739;DHT22;7461;52.440;13.540;2022-07-31T09:22:45;24.40;99.90
14739;DHT22;7461;52.440;13.540;2022-07-31T09:25:14;24.50;99.90
14739;DHT22;7461;52.440;13.540;2022-07-31T09:27:44;24.60;99.90
14739;DHT22;7461;52.440;13.540;2022-07-31T09:30:12;24.60;99.80
14739;DHT22;7461;52.440;13.540;2022-07-31T09:32:39;24.80;99.90
14739;DHT22;7461;52.440;13.540;2022-07-31T09:35:09;25.00;99.90
14739;DHT22;7461;52.440;13.540;2022-07-31T09:37:37;25.10;98.90
14739;DHT22;7461;52.440;13.540;2022-07-31T09:40:06;25.10;98.80
14739;DHT22;7461;52.440;13.540;2022-07-31T09:42:38;25.00;99.00
14739;DHT22;7461;52.440;13.540;2022-07-31T09:45:23;25.00;98.40
14739;DHT22;7461;52.440;13.540;2022-07-31T09:48:06;25.00;97.20
14739;DHT22;7461;52.440;13.540;2022-07-31T09:50:37;25.00;96.60
14739;DHT22;7461;52.440;13.540;2022-07-31T09:53:04;25.00;96.20
14739;DHT22;7461;52.440;13.540;2022-07-31T09:55:31;25.10;96.50
14739;DHT22;7461;52.440;13.540;2022-07-31T09:57:59;25.30;96.80
14739;DHT22;7461;52.440;13.540;2022-07-31T10:00:27;25.40;95.80
14739;DHT22;7461;52.440;13.540;2022-07-31T10:02:55;25.40;96.30
14739;DHT22;7461;52.440;13.540;2022-07-31T10:05:24;25.50;94.70
14739;DHT22;7461;52.440;13.540;2022-07-31T10:07:52;25.90;94.60
14739;DHT22;7461;52.440;13.540;2022-07-31T10:10:22;25.90;95.20
14739;DHT22;7461;52.440;13.540;2022-07-31T10:12:52;25.70;93.40
14739;DHT22;7461;52.440;13.540;2022-07-31T10:15:22;25.80;93.90
14739;DHT22;7461;52.440;13.540;2022-07-31T10:17:53;25.70;93.70
14739;DHT22;7461;52.440;13.540;2022-07-31T10:20:23;25.90;93.90
14739;DHT22;7461;52.440;13.540;2022-07-31T10:22:55;26.10;93.40
14739;DHT22;7461;52.440;13.540;2022-07-31T10:25:24;26.20;93.30
14739;DHT22;7461;52.440;13.540;2022-07-31T10:27:51;26.20;93.20
14739;DHT22;7461;52.440;13.540;2022-07-31T10:30:19;26.20;92.20
14739;DHT22;7461;52.440;13.540;2022-07-31T10:32:46;26.40;91.90
14739;DHT22;7461;52.440;13.540;2022-07-31T10:35:17;26.30;91.50
14739;DHT22;7461;52.440;13.540;2022-07-31T10:37:52;26.30;91.60
14739;DHT22;7461;52.440;13.540;2022-07-31T10:40:25;26.40;92.40
14739;DHT22;7461;52.440;13.540;2022-07-31T10:43:01;26.40;91.80
14739;DHT22;7461;52.440;13.540;2022-07-31T10:45:45;26.60;92.90
14739;DHT22;7461;52.440;13.540;2022-07-31T10:48:12;26.80;91.70
14739;DHT22;7461;52.440;13.540;2022-07-31T10:50:40;26.70;92.40
14739;DHT22;7461;52.440;13.540;2022-07-31T10:53:08;26.70;91.80
14739;DHT22;7461;52.440;13.540;2022-07-31T10:55:36;26.60;91.30
14739;DHT22;7461;52.440;13.540;2022-07-31T10:58:07;26.50;91.10
14739;DHT22;7461;52.440;13.540;2022-07-31T11:00:35;26.40;90.60
14739;DHT22;7461;52.440;13.540;2022-07-31T11:03:13;26.30;91.30
14739;DHT22;7461;52.440;13.540;2022-07-31T11:05:53;26.00;91.20
14739;DHT22;7461;52.440;13.540;2022-07-31T11:08:20;25.90;92.10
14739;DHT22;7461;52.440;13.540;2022-07-31T11:10:51;25.90;91.70
14739;DHT22;7461;52.440;13.540;2022-07-31T11:13:21;26.00;93.00
14739;DHT22;7461;52.440;13.540;2022-07-31T11:15:50;26.00;91.60
14739;DHT22;7461;52.440;13.540;2022-07-31T11:18:20;26.00;91.10
14739;DHT22;7461;52.440;13.540;2022-07-31T11:20:59;26.10;91.30
14739;DHT22;7461;52.440;13.540;2022-07-31T11:23:28;26.20;91.20
14739;DHT22;7461;52.440;13.540;2022-07-31T11:25:58;26.10;90.70
14739;DHT22;7461;52.440;13.540;2022-07-31T11:28:26;26.30;91.60
14739;DHT22;7461;52.440;13.540;2022-07-31T11:30:54;26.30;92.10
14739;DHT22;7461;52.440;13.540;2022-07-31T11:33:29;26.10;90.30
14739;DHT22;7461;52.440;13.540;2022-07-31T11:36:04;25.90;89.80
14739;DHT22;7461;52.440;13.540;2022-07-31T11:38:31;25.90;91.30
14739;DHT22;7461;52.440;13.540;2022-07-31T11:40:58;26.20;90.30
14739;DHT22;7461;52.440;13.540;2022-07-31T11:43:25;26.30;90.50
14739;DHT22;7461;52.440;13.540;2022-07-31T11:45:53;26.50;88.90
14739;DHT22;7461;52.440;13.540;2022-07-31T11:48:21;26.50;88.80
14739;DHT22;7461;52.440;13.540;2022-07-31T11:50:49;26.60;89.30
14739;DHT22;7461;52.440;13.540;2022-07-31T11:53:18;26.60;88.10
14739;DHT22;7461;52.440;13.540;2022-07-31T11:55:47;26.70;87.90
14739;DHT22;7461;52.440;13.540;2022-07-31T11:58:15;26.80;87.10
14739;DHT22;7461;52.440;13.540;2022-07-31T12:00:51;26.80;89.10
14739;DHT22;7461;52.440;13.540;2022-07-31T12:03:20;26.80;87.20
14739;DHT22;7461;52.440;13.540;2022-07-31T12:05:49;26.70;88.60
14739;DHT22;7461;52.440;13.540;2022-07-31T12:08:20;26.70;86.70
14739;DHT22;7461;52.440;13.540;2022-07-31T12:10:50;26.70;88.10
14739;DHT22;7461;52.440;13.540;2022-07-31T12:13:18;26.70;88.10
14739;DHT22;7461;52.440;13.540;2022-07-31T12:15:56;26.70;85.50
14739;DHT22;7461;52.440;13.540;2022-07-31T12:18:23;26.70;87.30
14739;DHT22;7461;52.440;13.540;2022-07-31T12:20:52;26.70;87.00
14739;DHT22;7461;52.440;13.540;2022-07-31T12:23:20;26.70;86.90
14739;DHT22;7461;52.440;13.540;2022-07-31T12:25:47;26.60;87.00
14739;DHT22;7461;52.440;13.540;2022-07-31T12:28:15;26.50;88.30
14739;DHT22;7461;52.440;13.540;2022-07-31T12:30:42;26.50;84.50
14739;DHT22;7461;52.440;13.540;2022-07-31T12:33:11;26.40;84.60
14739;DHT22;7461;52.440;13.540;2022-07-31T12:35:39;26.50;86.30
14739;DHT22;7461;52.440;13.540;2022-07-31T12:38:06;26.50;84.20
14739;DHT22;7461;52.440;13.540;2022-07-31T12:40:35;26.50;85.20
14739;DHT22;7461;52.440;13.540;2022-07-31T12:43:02;26.50;84.20
14739;DHT22;7461;52.440;13.540;2022-07-31T12:45:31;26.40;84.60
14739;DHT22;7461;52.440;13.540;2022-07-31T12:47:58;26.40;86.20
14739;DHT22;7461;52.440;13.540;2022-07-31T12:50:26;26.40;86.30
14739;DHT22;7461;52.440;13.540;2022-07-31T12:52:56;26.30;85.10
14739;DHT22;7461;52.440;13.540;2022-07-31T12:55:24;26.30;89.30
14739;DHT22;7461;52.440;13.540;2022-07-31T12:57:52;26.20;89.50
14739;DHT22;7461;52.440;13.540;2022-07-31T13:00:19;26.20;89.40
14739;DHT22;7461;52.440;13.540;2022-07-31T13:02:48;26.00;89.00
14739;DHT22;7461;52.440;13.540;2022-07-31T13:05:15;25.90;90.60
14739;DHT22;7461;52.440;13.540;2022-07-31T13:07:42;25.90;91.70
14739;DHT22;7461;52.440;13.540;2022-07-31T13:10:09;25.80;90.80
14739;DHT22;7461;52.440;13.540;2022-07-31T13:12:36;25.80;91.50
14739;DHT22;7461;52.440;13.540;2022-07-31T13:15:05;25.70;92.10
14739;DHT22;7461;52.440;13.540;2022-07-31T13:17:32;25.70;92.40
14739;DHT22;7461;52.440;13.540;2022-07-31T13:19:59;25.60;90.40
14739;DHT22;7461;52.440;13.540;2022-07-31T13:22:25;25.60;90.70
14739;DHT22;7461;52.440;13.540;2022-07-31T13:24:52;25.60;91.80
14739;DHT22;7461;52.440;13.540;2022-07-31T13:27:19;25.60;90.80
14739;DHT22;7461;52.440;13.540;2022-07-31T13:29:46;25.70;91.50
14739;DHT22;7461;52.440;13.540;2022-07-31T13:32:14;25.80;90.20
14739;DHT22;7461;52.440;13.540;2022-07-31T13:34:41;26.00;90.10
14739;DHT22;7461;52.440;13.540;2022-07-31T13:37:08;26.20;90.90
14739;DHT22;7461;52.440;13.540;2022-07-31T13:39:35;26.40;89.10
14739;DHT22;7461;52.440;13.540;2022-07-31T13:42:02;26.50;87.20
14739;DHT22;7461;52.440;13.540;2022-07-31T13:44:29;26.50;88.90
14739;DHT22;7461;52.440;13.540;2022-07-31T13:46:57;26.60;88.90
14739;DHT22;7461;52.440;13.540;2022-07-31T13:49:26;26.70;88.60
14739;DHT22;7461;52.440;13.540;2022-07-31T13:51:57;26.80;86.60
14739;DHT22;7461;52.440;13.540;2022-07-31T13:54:24;26.80;86.70
14739;DHT22;7461;52.440;13.540;2022-07-31T13:56:50;27.00;88.10
14739;DHT22;7461;52.440;13.540;2022-07-31T13:59:17;27.10;84.80
14739;DHT22;7461;52.440;13.540;2022-07-31T14:01:44;27.10;83.80
14739;DHT22;7461;52.440;13.540;2022-07-31T14:04:15;27.10;82.00
14739;DHT22;7461;52.440;13.540;2022-07-31T14:06:43;26.90;82.50
14739;DHT22;7461;52.440;13.540;2022-07-31T14:09:10;27.00;83.80
14739;DHT22;7461;52.440;13.540;2022-07-31T14:11:38;27.10;86.20
14739;DHT22;7461;52.440;13.540;2022-07-31T14:14:04;27.20;81.40
14739;DHT22;7461;52.440;13.540;2022-07-31T14:16:31;27.30;81.80
14739;DHT22;7461;52.440;13.540;2022-07-31T14:18:58;27.40;78.10
14739;DHT22;7461;52.440;13.540;2022-07-31T14:21:25;27.40;77.20
14739;DHT22;7461;52.440;13.540;2022-07-31T14:23:53;27.40;78.60
14739;DHT22;7461;52.440;13.540;2022-07-31T14:26:20;27.50;79.10
14739;DHT22;7461;52.440;13.540;2022-07-31T14:28:47;27.50;79.60
14739;DHT22;7461;52.440;13.540;2022-07-31T14:31:15;27.60;76.80
14739;DHT22;7461;52.440;13.540;2022-07-31T14:33:41;27.60;78.20
14739;DHT22;7461;52.440;13.540;2022-07-31T14:36:08;27.40;78.70
14739;DHT22;7461;52.440;13.540;2022-07-31T14:38:35;27.50;79.00
14739;DHT22;7461;52.440;13.540;2022-07-31T14:41:04;27.50;78.30
14739;DHT22;7461;52.440;13.540;2022-07-31T14:43:31;27.40;78.30
14739;DHT22;7461;52.440;13.540;2022-07-31T14:45:59;27.40;82.50
14739;DHT22;7461;52.440;13.540;2022-07-31T14:48:26;27.10;77.60
14739;DHT22;7461;52.440;13.540;2022-07-31T14:50:53;27.00;77.50
14739;DHT22;7461;52.440;13.540;2022-07-31T14:53:30;27.00;78.60
14739;DHT22;7461;52.440;13.540;2022-07-31T14:55:57;27.00;81.80
14739;DHT22;7461;52.440;13.540;2022-07-31T14:58:25;27.10;79.50
14739;DHT22;7461;52.440;13.540;2022-07-31T15:00:52;27.20;81.70
14739;DHT22;7461;52.440;13.540;2022-07-31T15:03:19;27.20;78.90
14739;DHT22;7461;52.440;13.540;2022-07-31T15:05:46;27.30;79.60
14739;DHT22;7461;52.440;13.540;2022-07-31T15:08:14;27.30;77.60
14739;DHT22;7461;52.440;13.540;2022-07-31T15:10:41;27.20;77.40
14739;DHT22;7461;52.440;13.540;2022-07-31T15:13:11;27.30;81.40
14739;DHT22;7461;52.440;13.540;2022-07-31T15:15:39;27.30;80.30
14739;DHT22;7461;52.440;13.540;2022-07-31T15:18:06;27.40;77.50
14739;DHT22;7461;52.440;13.540;2022-07-31T15:20:33;27.30;76.70
14739;DHT22;7461;52.440;13.540;2022-07-31T15:23:00;27.40;78.00
14739;DHT22;7461;52.440;13.540;2022-07-31T15:25:27;27.40;77.60
14739;DHT22;7461;52.440;13.540;2022-07-31T15:27:55;27.30;78.30
14739;DHT22;7461;52.440;13.540;2022-07-31T15:30:21;27.30;76.40
14739;DHT22;7461;52.440;13.540;2022-07-31T15:32:51;27.30;74.90
14739;DHT22;7461;52.440;13.540;2022-07-31T15:35:18;27.30;74.00
14739;DHT22;7461;52.440;13.540;2022-07-31T15:37:47;27.20;73.90